Time;durP1;ratioP1;P1;durP2;ratioP2;P2;SDS_P1;SDS_P2;PMS_P1;PMS_P2;Temp;Humidity;BMP_temperature;BMP_pressure;BME280_temperature;BME280_humidity;BME280_pressure;Samples;Min_cycle;Max_cycle;Signal;HPM_P1;HPM_P2
2024/02/04 00:02:07;;;;;;;;;;;;;;;8.92;100.00;102413.50;5105912;27;19943;-73
2024/02/04 00:04:32;;;;;;;;;;;;;;;8.96;100.00;102419.56;5114271;28;20126;-73
2024/02/04 00:06:57;;;;;;;;;;;;;;;8.99;100.00;102411.69;5113602;28;19983;-73
2024/02/04 00:09:23;;;;;;;;;;;;;;;8.97;100.00;102416.94;5107402;28;19927;-73
2024/02/04 00:11:48;;;;;;;;;;;;;;;8.98;100.00;102416.03;5111510;28;19916;-73
2024/02/04 00:14:13;;;;;;;;;;;;;;;9.01;100.00;102408.19;5113596;28;19911;-73
2024/02/04 00:16:38;;;;;;;;;;;;;;;9.01;100.00;102416.03;5113169;28;19928;-73
2024/02/04 00:19:03;;;;;;;;;;;;;;;9.02;100.00;102401.19;5113459;28;20224;-73
2024/02/04 00:21:29;;;;;;;;;;;;;;;8.99;100.00;102403.84;5115341;28;19919;-73
2024/02/04 00:23:54;;;;;;;;;;;;;;;9.02;100.00;102404.69;5115397;28;20045;-73
2024/02/04 00:26:19;;;;;;;;;;;;;;;9.03;100.00;102413.41;5113960;28;20378;-73
2024/02/04 00:28:45;;;;;;;;;;;;;;;9.03;100.00;102405.56;5115534;28;19927;-73
2024/02/04 00:31:10;;;;;;;;;;;;;;;9.01;100.00;102402.94;5116197;28;19922;-73
2024/02/04 00:33:35;;;;;;;;;;;;;;;9.00;100.00;102400.34;5116204;28;19956;-73
2024/02/04 00:36:00;;;;;;;;;;;;;;;8.99;100.00;102396.88;5115437;28;19912;-73
2024/02/04 00:38:26;;;;;;;;;;;;;;;8.97;100.00;102400.41;5115246;28;19919;-73
2024/02/04 00:40:52;;;;;;;;;;;;;;;8.96;100.00;102409.09;5115510;27;20195;-73
2024/02/04 00:43:17;;;;;;;;;;;;;;;8.93;100.00;102391.72;5119348;27;19908;-73
2024/02/04 00:45:42;;;;;;;;;;;;;;;8.90;100.00;102402.19;5118287;27;19923;-73
2024/02/04 00:48:08;;;;;;;;;;;;;;;8.96;100.00;102383.84;5111428;28;20302;-73
2024/02/04 00:50:33;;;;;;;;;;;;;;;8.96;100.00;102386.44;5115993;28;19915;-73
2024/02/04 00:52:58;;;;;;;;;;;;;;;8.93;100.00;102372.53;5115404;28;19916;-73
2024/02/04 00:55:23;;;;;;;;;;;;;;;8.95;100.00;102362.94;5115884;28;20122;-73
2024/02/04 00:57:49;;;;;;;;;;;;;;;8.94;100.00;102364.69;5097666;28;20221;-73
2024/02/04 01:00:14;;;;;;;;;;;;;;;8.90;100.00;102360.38;5097163;28;20230;-73
2024/02/04 01:02:39;;;;;;;;;;;;;;;8.90;100.00;102365.59;5097102;28;20008;-73
2024/02/04 01:05:05;;;;;;;;;;;;;;;8.86;100.00;102365.63;5115083;28;20261;-73
2024/02/04 01:07:30;;;;;;;;;;;;;;;8.88;100.00;102354.31;5115402;28;19915;-73
2024/02/04 01:09:55;;;;;;;;;;;;;;;8.87;100.00;102364.78;5110457;28;20157;-73
2024/02/04 01:12:21;;;;;;;;;;;;;;;8.81;100.00;102370.91;5115336;28;19916;-73
2024/02/04 01:14:46;;;;;;;;;;;;;;;8.83;100.00;102363.94;5115490;28;19919;-73
2024/02/04 01:17:11;;;;;;;;;;;;;;;8.82;100.00;102370.91;5114926;28;19915;-73
2024/02/04 01:19:36;;;;;;;;;;;;;;;8.80;100.00;102374.41;5115086;28;20079;-73
2024/02/04 01:22:02;;;;;;;;;;;;;;;8.80;100.00;102372.69;5114117;28;19928;-73
2024/02/04 01:24:27;;;;;;;;;;;;;;;8.78;100.00;102371.78;5104553;28;20015;-73
2024/02/04 01:26:52;;;;;;;;;;;;;;;8.81;100.00;102370.91;5094615;28;20107;-73
2024/02/04 01:29:17;;;;;;;;;;;;;;;8.85;100.00;102377.84;5094714;28;19943;-73
2024/02/04 01:31:42;;;;;;;;;;;;;;;8.86;100.00;102379.59;5084226;28;20374;-73
2024/02/04 01:34:08;;;;;;;;;;;;;;;8.87;100.00;102380.44;5093502;28;20030;-73
2024/02/04 01:36:33;;;;;;;;;;;;;;;8.88;100.00;102390.88;5071381;28;19935;-73
2024/02/04 01:38:58;;;;;;;;;;;;;;;8.89;100.00;102392.59;5059968;28;20311;-73
2024/02/04 01:41:26;;;;;;;;;;;;;;;8.89;100.00;102384.75;5094309;28;20273;-73
2024/02/04 01:43:51;;;;;;;;;;;;;;;8.92;100.00;102392.59;5104443;28;19920;-73
2024/02/04 01:46:17;;;;;;;;;;;;;;;8.97;100.00;102403.88;5077728;28;20246;-73
2024/02/04 01:48:42;;;;;;;;;;;;;;;9.00;100.00;102393.41;5076525;28;19944;-73
2024/02/04 01:51:08;;;;;;;;;;;;;;;9.00;100.00;102388.16;5078043;28;20256;-73
2024/02/04 01:53:34;;;;;;;;;;;;;;;8.99;100.00;102390.78;5094805;28;19981;-73
2024/02/04 01:55:59;;;;;;;;;;;;;;;8.96;100.00;102396.03;5086492;28;19924;-73
2024/02/04 01:58:24;;;;;;;;;;;;;;;8.93;100.00;102393.44;5079627;28;20096;-73
2024/02/04 02:00:51;;;;;;;;;;;;;;;8.96;100.00;102396.03;5089381;28;19950;-73
2024/02/04 02:03:16;;;;;;;;;;;;;;;8.97;100.00;102401.25;5087617;28;19951;-73
2024/02/04 02:05:41;;;;;;;;;;;;;;;8.97;100.00;102406.47;5087655;28;20228;-73
2024/02/04 02:08:07;;;;;;;;;;;;;;;9.00;100.00;102403.84;5079097;28;19920;-73
2024/02/04 02:10:33;;;;;;;;;;;;;;;9.02;100.00;102412.53;5108126;28;19926;-73
2024/02/04 02:12:58;;;;;;;;;;;;;;;8.99;100.00;102412.56;5086428;28;19921;-73
2024/02/04 02:15:27;;;;;;;;;;;;;;;8.90;100.00;102411.78;5078108;28;19924;-73
2024/02/04 02:17:55;;;;;;;;;;;;;;;8.93;100.00;102411.72;5078411;28;19961;-73
2024/02/04 02:20:26;;;;;;;;;;;;;;;8.94;100.00;102401.28;5078403;28;20223;-76
2024/02/04 02:23:10;;;;;;;;;;;;;;;9.01;100.00;102405.56;5098567;28;19959;-73
2024/02/04 02:25:36;;;;;;;;;;;;;;;9.03;100.00;102406.41;5118422;28;19919;-73
2024/02/04 02:28:01;;;;;;;;;;;;;;;9.01;100.00;102402.09;5117724;28;19920;-73
2024/02/04 02:30:27;;;;;;;;;;;;;;;9.03;100.00;102393.34;5118554;28;20157;-73
2024/02/04 02:32:52;;;;;;;;;;;;;;;9.03;100.00;102393.34;5117946;28;19920;-73
2024/02/04 02:35:17;;;;;;;;;;;;;;;9.03;100.00;102388.13;5118048;28;19930;-73
2024/02/04 02:37:48;;;;;;;;;;;;;;;8.99;100.00;102377.72;5112923;28;20181;-73
2024/02/04 02:40:28;;;;;;;;;;;;;;;9.03;100.00;102372.44;5115444;28;20160;-73
2024/02/04 02:42:54;;;;;;;;;;;;;;;9.01;100.00;102368.97;5117411;28;19926;-73
2024/02/04 02:45:22;;;;;;;;;;;;;;;9.02;100.00;102370.72;5118168;28;19915;-73
2024/02/04 02:47:48;;;;;;;;;;;;;;;8.95;100.00;102379.50;5117418;28;19920;-73
2024/02/04 02:50:13;;;;;;;;;;;;;;;8.93;100.00;102373.44;5117623;28;19926;-73
2024/02/04 02:52:38;;;;;;;;;;;;;;;8.89;100.00;102376.94;5117816;28;19920;-73
2024/02/04 02:55:04;;;;;;;;;;;;;;;8.86;100.00;102387.44;5117108;28;19927;-73
2024/02/04 02:57:29;;;;;;;;;;;;;;;8.87;100.00;102393.50;5117595;28;19920;-73
2024/02/04 02:59:54;;;;;;;;;;;;;;;8.83;100.00;102379.59;5116705;28;19923;-73
2024/02/04 03:02:20;;;;;;;;;;;;;;;8.83;100.00;102369.16;5117012;28;19919;-73
2024/02/04 03:04:45;;;;;;;;;;;;;;;8.78;100.00;102361.34;5117695;28;19920;-73
2024/02/04 03:07:10;;;;;;;;;;;;;;;8.75;100.00;102356.16;5116555;28;19982;-73
2024/02/04 03:09:35;;;;;;;;;;;;;;;8.75;100.00;102357.88;5117431;28;19923;-73
2024/02/04 03:12:01;;;;;;;;;;;;;;;8.73;100.00;102352.72;5117273;28;19919;-73
2024/02/04 03:14:26;;;;;;;;;;;;;;;8.77;100.00;102358.78;5117365;28;19951;-73
2024/02/04 03:16:51;;;;;;;;;;;;;;;8.75;100.00;102353.56;5117361;28;19943;-73
2024/02/04 03:19:16;;;;;;;;;;;;;;;8.74;100.00;102359.66;5116860;28;19927;-73
2024/02/04 03:21:41;;;;;;;;;;;;;;;8.77;100.00;102364.00;5117478;28;20157;-73
2024/02/04 03:24:07;;;;;;;;;;;;;;;8.82;100.00;102357.84;5116910;28;20215;-73
2024/02/04 03:26:32;;;;;;;;;;;;;;;8.85;100.00;102346.50;5117440;28;19937;-73
2024/02/04 03:28:58;;;;;;;;;;;;;;;8.86;100.00;102342.13;5116580;28;19927;-74
2024/02/04 03:31:23;;;;;;;;;;;;;;;8.85;100.00;102338.66;5108613;28;19924;-73
2024/02/04 03:33:49;;;;;;;;;;;;;;;8.90;100.00;102354.31;5109958;28;19920;-73
2024/02/04 03:36:18;;;;;;;;;;;;;;;8.88;100.00;102349.09;5116595;28;19927;-73
2024/02/04 03:38:43;;;;;;;;;;;;;;;8.91;100.00;102366.47;5115121;28;19919;-73
2024/02/04 03:41:09;;;;;;;;;;;;;;;8.94;100.00;102367.31;5097736;28;19920;-73
2024/02/04 03:43:35;;;;;;;;;;;;;;;8.85;100.00;102362.16;5117746;28;19919;-72
2024/02/04 03:46:01;;;;;;;;;;;;;;;8.89;100.00;102355.16;5116347;28;20206;-73
2024/02/04 03:48:26;;;;;;;;;;;;;;;8.86;100.00;102365.63;5117155;28;19923;-72
2024/02/04 03:50:51;;;;;;;;;;;;;;;8.92;100.00;102371.69;5116221;28;20048;-72
2024/02/04 03:53:16;;;;;;;;;;;;;;;8.92;100.00;102370.81;5116669;28;19915;-72
2024/02/04 03:55:42;;;;;;;;;;;;;;;8.94;100.00;102364.69;5116434;28;19930;-72
2024/02/04 03:58:07;;;;;;;;;;;;;;;8.87;100.00;102368.25;5116496;28;19919;-72
2024/02/04 04:00:33;;;;;;;;;;;;;;;8.77;100.00;102377.91;5116309;28;19962;-73
2024/02/04 04:02:58;;;;;;;;;;;;;;;8.80;100.00;102366.56;5116181;28;19988;-73
2024/02/04 04:05:23;;;;;;;;;;;;;;;8.86;100.00;102355.19;5116338;28;19926;-73
2024/02/04 04:07:48;;;;;;;;;;;;;;;8.92;100.00;102360.38;5116481;28;19941;-73
2024/02/04 04:10:14;;;;;;;;;;;;;;;8.90;100.00;102349.94;5115260;28;20311;-73
2024/02/04 04:12:39;;;;;;;;;;;;;;;8.91;100.00;102333.34;5116405;28;20006;-73
2024/02/04 04:15:05;;;;;;;;;;;;;;;8.92;100.00;102324.66;5115977;28;20100;-73
2024/02/04 04:17:30;;;;;;;;;;;;;;;8.88;100.00;102322.06;5115984;28;20242;-73
2024/02/04 04:19:55;;;;;;;;;;;;;;;8.89;100.00;102327.28;5116106;28;20375;-73
2024/02/04 04:22:20;;;;;;;;;;;;;;;8.94;100.00;102328.09;5116242;28;19953;-73
2024/02/04 04:24:45;;;;;;;;;;;;;;;8.94;100.00;102325.50;5116825;28;20223;-73
2024/02/04 04:27:11;;;;;;;;;;;;;;;8.88;100.00;102324.69;5115591;28;20395;-72
2024/02/04 04:29:36;;;;;;;;;;;;;;;8.91;100.00;102314.22;5116232;28;19937;-72
2024/02/04 04:32:01;;;;;;;;;;;;;;;8.95;100.00;102319.41;5115281;28;19934;-72
2024/02/04 04:34:26;;;;;;;;;;;;;;;8.96;100.00;102323.72;5116299;28;19959;-72
2024/02/04 04:36:51;;;;;;;;;;;;;;;8.95;100.00;102321.13;5115443;28;19919;-72
2024/02/04 04:39:17;;;;;;;;;;;;;;;8.89;100.00;102329.91;5115886;28;20226;-72
2024/02/04 04:41:43;;;;;;;;;;;;;;;8.94;100.00;102325.50;5115456;28;19955;-73
2024/02/04 04:44:08;;;;;;;;;;;;;;;8.95;100.00;102327.25;5115342;28;19920;-73
2024/02/04 04:46:37;;;;;;;;;;;;;;;8.98;100.00;102331.56;5115960;28;19964;-73
2024/02/04 04:49:02;;;;;;;;;;;;;;;8.90;100.00;102329.03;5115376;28;19953;-73
2024/02/04 04:51:27;;;;;;;;;;;;;;;8.92;100.00;102332.50;5115655;28;19920;-73
2024/02/04 04:53:53;;;;;;;;;;;;;;;8.93;100.00;102321.16;5115707;28;19931;-73
2024/02/04 04:56:18;;;;;;;;;;;;;;;8.93;100.00;102317.66;5115584;28;19927;-73
2024/02/04 04:58:43;;;;;;;;;;;;;;;8.88;100.00;102320.34;5115563;28;19962;-73
2024/02/04 05:01:08;;;;;;;;;;;;;;;8.88;100.00;102307.28;5114831;28;19938;-72
2024/02/04 05:03:34;;;;;;;;;;;;;;;8.81;100.00;102300.38;5115338;28;19920;-73
2024/02/04 05:06:01;;;;;;;;;;;;;;;8.82;100.00;102300.38;5114758;28;19954;-73
2024/02/04 05:08:26;;;;;;;;;;;;;;;8.83;100.00;102316.91;5115189;28;19965;-73
2024/02/04 05:10:51;;;;;;;;;;;;;;;8.81;100.00;102326.50;5096209;28;20238;-72
2024/02/04 05:13:16;;;;;;;;;;;;;;;8.78;100.00;102321.31;5114949;28;19923;-73
2024/02/04 05:15:42;;;;;;;;;;;;;;;8.80;100.00;102320.44;5115440;28;20336;-73
2024/02/04 05:18:07;;;;;;;;;;;;;;;8.84;100.00;102314.28;5114604;28;19919;-73
2024/02/04 05:20:32;;;;;;;;;;;;;;;8.81;100.00;102319.53;5115049;28;20211;-73
2024/02/04 05:22:57;;;;;;;;;;;;;;;8.79;100.00;102302.16;5114685;28;19923;-73
2024/02/04 05:25:23;;;;;;;;;;;;;;;8.79;100.00;102299.53;5114833;28;19920;-73
2024/02/04 05:27:48;;;;;;;;;;;;;;;8.81;100.00;102295.16;5115578;28;19920;-73
2024/02/04 05:30:14;;;;;;;;;;;;;;;8.75;100.00;102282.13;5114605;28;19998;-73
2024/02/04 05:32:39;;;;;;;;;;;;;;;8.75;100.00;102296.09;5114300;28;19919;-73
2024/02/04 05:35:04;;;;;;;;;;;;;;;8.77;100.00;102293.47;5096236;28;20158;-73
2024/02/04 05:37:29;;;;;;;;;;;;;;;8.69;100.00;102292.66;5096742;28;20104;-73
2024/02/04 05:39:55;;;;;;;;;;;;;;;8.70;100.00;102299.63;5115017;28;20136;-73
2024/02/04 05:42:20;;;;;;;;;;;;;;;8.68;100.00;102294.41;5114648;28;19920;-73
2024/02/04 05:44:45;;;;;;;;;;;;;;;8.65;100.00;102295.28;5115387;28;19915;-73
2024/02/04 05:47:11;;;;;;;;;;;;;;;8.72;100.00;102280.44;5114251;28;19978;-73
2024/02/04 05:49:36;;;;;;;;;;;;;;;8.72;100.00;102280.44;5115001;28;19920;-73
2024/02/04 05:52:01;;;;;;;;;;;;;;;8.69;100.00;102279.59;5114297;28;20115;-73
2024/02/04 05:54:26;;;;;;;;;;;;;;;8.71;100.00;102277.84;5114560;28;19949;-72
2024/02/04 05:56:51;;;;;;;;;;;;;;;8.68;100.00;102270.03;5114775;28;19962;-73
2024/02/04 05:59:17;;;;;;;;;;;;;;;8.71;100.00;102273.47;5114773;28;19920;-73
2024/02/04 06:01:42;;;;;;;;;;;;;;;8.74;100.00;102281.28;5114357;28;19920;-73
2024/02/04 06:04:08;;;;;;;;;;;;;;;8.75;100.00;102276.91;5114211;28;20034;-72
2024/02/04 06:06:33;;;;;;;;;;;;;;;8.82;100.00;102278.59;5114491;28;19920;-72
2024/02/04 06:08:58;;;;;;;;;;;;;;;8.89;100.00;102266.34;5114401;28;20104;-72
2024/02/04 06:11:23;;;;;;;;;;;;;;;8.93;100.00;102279.38;5114511;28;19982;-73
2024/02/04 06:13:49;;;;;;;;;;;;;;;8.91;100.00;102257.59;5115052;28;19915;-73
2024/02/04 06:16:14;;;;;;;;;;;;;;;8.88;100.00;102272.44;5114618;28;19945;-73
2024/02/04 06:18:39;;;;;;;;;;;;;;;8.87;100.00;102271.56;5114607;28;20190;-73
2024/02/04 06:21:05;;;;;;;;;;;;;;;8.87;100.00;102273.31;5114049;28;19920;-73
2024/02/04 06:23:30;;;;;;;;;;;;;;;8.86;100.00;102266.34;5114363;28;19916;-73
2024/02/04 06:25:56;;;;;;;;;;;;;;;8.82;100.00;102262.91;5114050;28;19920;-73
2024/02/04 06:28:21;;;;;;;;;;;;;;;8.82;100.00;102263.81;5114144;28;20010;-73
2024/02/04 06:30:46;;;;;;;;;;;;;;;8.84;100.00;102255.91;5114780;28;20118;-72
2024/02/04 06:33:11;;;;;;;;;;;;;;;8.81;100.00;102266.44;5113671;28;19920;-72
2024/02/04 06:35:37;;;;;;;;;;;;;;;8.81;100.00;102256.84;5114439;28;20007;-73
2024/02/04 06:38:02;;;;;;;;;;;;;;;8.82;100.00;102257.69;5095601;28;19920;-73
2024/02/04 06:40:27;;;;;;;;;;;;;;;8.77;100.00;102259.50;5114748;28;20148;-73
2024/02/04 06:42:52;;;;;;;;;;;;;;;8.78;100.00;102262.06;5115255;28;20135;-73
2024/02/04 06:45:18;;;;;;;;;;;;;;;8.78;100.00;102266.44;5118318;28;19915;-73
2024/02/04 06:47:44;;;;;;;;;;;;;;;8.78;100.00;102258.63;5118203;28;19919;-73
2024/02/04 06:50:13;;;;;;;;;;;;;;;8.80;100.00;102262.06;5117535;28;20158;-73
2024/02/04 06:52:39;;;;;;;;;;;;;;;8.77;100.00;102262.97;5117647;28;19995;-73
2024/02/04 06:55:04;;;;;;;;;;;;;;;8.75;100.00;102269.09;5117473;28;19931;-73
2024/02/04 06:57:29;;;;;;;;;;;;;;;8.79;100.00;102258.59;5117458;28;19964;-73
2024/02/04 06:59:54;;;;;;;;;;;;;;;8.73;100.00;102258.69;5099256;28;19916;-73
2024/02/04 07:02:20;;;;;;;;;;;;;;;8.78;100.00;102245.56;5117625;28;19946;-73
2024/02/04 07:04:45;;;;;;;;;;;;;;;8.80;100.00;102260.34;5117938;28;20198;-73
2024/02/04 07:07:10;;;;;;;;;;;;;;;8.81;100.00;102258.59;5117463;28;20203;-73
2024/02/04 07:09:35;;;;;;;;;;;;;;;8.82;100.00;102248.13;5117493;28;19915;-73
2024/02/04 07:12:01;;;;;;;;;;;;;;;8.82;100.00;102248.13;5117090;28;19919;-73
2024/02/04 07:14:26;;;;;;;;;;;;;;;8.85;100.00;102244.59;5117706;28;19965;-73
2024/02/04 07:16:51;;;;;;;;;;;;;;;8.78;100.00;102249.03;5117017;28;19947;-73
2024/02/04 07:19:16;;;;;;;;;;;;;;;8.80;100.00;102238.56;5117578;28;19989;-73
2024/02/04 07:21:42;;;;;;;;;;;;;;;8.77;100.00;102222.94;5117534;28;19915;-73
2024/02/04 07:24:07;;;;;;;;;;;;;;;8.78;100.00;102230.72;5116859;28;19930;-73
2024/02/04 07:26:32;;;;;;;;;;;;;;;8.77;100.00;102233.38;5117127;28;20207;-73
2024/02/04 07:28:57;;;;;;;;;;;;;;;8.77;100.00;102236.84;5116929;28;20275;-73
2024/02/04 07:31:23;;;;;;;;;;;;;;;8.79;100.00;102242.06;5117254;28;19919;-73
2024/02/04 07:33:48;;;;;;;;;;;;;;;8.79;100.00;102235.09;5116283;28;19919;-73
2024/02/04 07:36:13;;;;;;;;;;;;;;;8.82;100.00;102239.41;5098285;28;20101;-73
2024/02/04 07:38:38;;;;;;;;;;;;;;;8.83;100.00;102238.53;5098434;28;20006;-73
2024/02/04 07:41:04;;;;;;;;;;;;;;;8.82;100.00;102237.69;5116035;28;19954;-73
2024/02/04 07:43:29;;;;;;;;;;;;;;;8.85;100.00;102244.59;5116405;28;19918;-73
2024/02/04 07:45:54;;;;;;;;;;;;;;;8.86;100.00;102243.75;5097977;28;20174;-73
2024/02/04 07:48:19;;;;;;;;;;;;;;;8.86;100.00;102242.84;5112468;28;20222;-73
2024/02/04 07:50:45;;;;;;;;;;;;;;;8.87;100.00;102241.97;5108619;28;20115;-73
2024/02/04 07:53:11;;;;;;;;;;;;;;;8.91;100.00;102243.66;5098440;28;19919;-75
2024/02/04 07:55:36;;;;;;;;;;;;;;;8.90;100.00;102241.94;5097144;28;20237;-75
2024/02/04 07:58:01;;;;;;;;;;;;;;;8.95;100.00;102234.91;5097405;28;19916;-75
2024/02/04 08:00:26;;;;;;;;;;;;;;;8.91;100.00;102230.59;5116140;28;20211;-73
2024/02/04 08:02:52;;;;;;;;;;;;;;;8.92;100.00;102233.19;5115829;28;20115;-73
2024/02/04 08:05:17;;;;;;;;;;;;;;;8.91;100.00;102236.69;5111755;28;19923;-73
2024/02/04 08:07:42;;;;;;;;;;;;;;;8.93;100.00;102249.72;5115548;28;19923;-73
2024/02/04 08:10:08;;;;;;;;;;;;;;;8.94;100.00;102252.34;5108812;28;19942;-75
2024/02/04 08:12:33;;;;;;;;;;;;;;;8.95;100.00;102240.13;5107700;28;19956;-75
2024/02/04 08:14:58;;;;;;;;;;;;;;;8.95;100.00;102261.03;5115105;28;19924;-73
2024/02/04 08:17:24;;;;;;;;;;;;;;;8.96;100.00;102247.09;5113944;28;19919;-73
2024/02/04 08:19:49;;;;;;;;;;;;;;;8.97;100.00;102259.28;5115545;28;19916;-73
2024/02/04 08:22:14;;;;;;;;;;;;;;;9.02;100.00;102254.84;5095698;28;19924;-73
2024/02/04 08:24:39;;;;;;;;;;;;;;;8.98;100.00;102261.00;5116481;28;19980;-73
2024/02/04 08:27:05;;;;;;;;;;;;;;;8.96;100.00;102258.41;5114887;28;19991;-73
2024/02/04 08:29:30;;;;;;;;;;;;;;;8.97;100.00;102260.16;5115833;28;20147;-73
2024/02/04 08:31:55;;;;;;;;;;;;;;;8.99;100.00;102254.91;5097213;28;19927;-73
2024/02/04 08:34:23;;;;;;;;;;;;;;;8.98;100.00;102251.41;5115395;28;19982;-73
2024/02/04 08:36:49;;;;;;;;;;;;;;;8.98;100.00;102235.72;5089909;28;20228;-73
2024/02/04 08:39:14;;;;;;;;;;;;;;;9.00;100.00;102234.00;5115124;28;19920;-72
2024/02/04 08:41:39;;;;;;;;;;;;;;;9.01;100.00;102242.69;5116493;28;19951;-73
2024/02/04 08:44:04;;;;;;;;;;;;;;;9.02;100.00;102233.94;5114372;28;19923;-73
2024/02/04 08:46:30;;;;;;;;;;;;;;;9.07;100.00;102232.16;5111305;28;19990;-73
2024/02/04 08:48:55;;;;;;;;;;;;;;;9.06;100.00;102222.59;5099410;28;20223;-73
2024/02/04 08:51:20;;;;;;;;;;;;;;;9.06;100.00;102235.66;5113129;28;20241;-73
2024/02/04 08:53:45;;;;;;;;;;;;;;;9.08;100.00;102233.00;5113567;28;20009;-73
2024/02/04 08:56:11;;;;;;;;;;;;;;;9.10;100.00;102236.50;5112679;28;19968;-73
2024/02/04 08:58:37;;;;;;;;;;;;;;;9.10;100.00;102226.03;5113893;28;19938;-73
2024/02/04 09:01:02;;;;;;;;;;;;;;;9.12;100.00;102226.88;5113028;28;19919;-72
2024/02/04 09:03:29;;;;;;;;;;;;;;;9.10;100.00;102221.66;5113496;28;20219;-72
2024/02/04 09:05:54;;;;;;;;;;;;;;;9.11;100.00;102238.22;5112602;28;19919;-72
2024/02/04 09:08:20;;;;;;;;;;;;;;;9.13;100.00;102241.66;5113422;28;20592;-72
2024/02/04 09:10:45;;;;;;;;;;;;;;;9.12;100.00;102240.81;5100131;28;20305;-73
2024/02/04 09:13:10;;;;;;;;;;;;;;;9.12;100.00;102243.41;5097363;28;19927;-73
2024/02/04 09:15:35;;;;;;;;;;;;;;;9.13;100.00;102237.31;5113095;28;19932;-73
2024/02/04 09:18:00;;;;;;;;;;;;;;;9.15;100.00;102240.78;5112407;28;19919;-73
2024/02/04 09:20:26;;;;;;;;;;;;;;;9.14;100.00;102227.72;5112285;28;19995;-73
2024/02/04 09:22:51;;;;;;;;;;;;;;;9.15;100.00;102229.44;5112840;28;20237;-73
2024/02/04 09:25:16;;;;;;;;;;;;;;;9.17;100.00;102222.47;5087858;28;20322;-72
2024/02/04 09:27:42;;;;;;;;;;;;;;;9.17;100.00;102244.22;5088941;28;20131;-72
2024/02/04 09:30:07;;;;;;;;;;;;;;;9.18;100.00;102250.31;5099257;28;19915;-73
2024/02/04 09:32:34;;;;;;;;;;;;;;;9.16;100.00;102252.94;5090917;28;20116;-73
2024/02/04 09:34:59;;;;;;;;;;;;;;;9.16;100.00;102259.94;5089398;28;20211;-73
2024/02/04 09:37:24;;;;;;;;;;;;;;;9.16;100.00;102257.31;5092388;28;19927;-73
2024/02/04 09:39:49;;;;;;;;;;;;;;;9.15;100.00;102260.81;5088945;28;19916;-73
2024/02/04 09:42:23;;;;;;;;;;;;;;;9.15;100.00;102245.13;5091440;28;20216;-73
2024/02/04 09:44:52;;;;;;;;;;;;;;;9.13;100.00;102247.78;5085802;28;20033;-73
2024/02/04 09:47:17;;;;;;;;;;;;;;;9.08;100.00;102233.00;5105818;28;19919;-73
2024/02/04 09:49:43;;;;;;;;;;;;;;;9.06;100.00;102237.38;5104417;28;19926;-73
2024/02/04 09:52:08;;;;;;;;;;;;;;;8.99;100.00;102229.63;5099187;28;19981;-73
2024/02/04 09:54:44;;;;;;;;;;;;;;;8.98;100.00;102230.50;5090576;28;19942;-73
2024/02/04 09:57:10;;;;;;;;;;;;;;;8.97;100.00;102241.84;5088789;28;19920;-73
2024/02/04 09:59:35;;;;;;;;;;;;;;;8.99;100.00;102236.63;5088588;28;19916;-73
2024/02/04 10:02:03;;;;;;;;;;;;;;;8.93;100.00;102229.72;5089905;28;19926;-73
2024/02/04 10:04:28;;;;;;;;;;;;;;;8.97;100.00;102235.78;5091570;28;20250;-73
2024/02/04 10:06:53;;;;;;;;;;;;;;;8.95;100.00;102237.50;5095631;28;19926;-73
2024/02/04 10:09:19;;;;;;;;;;;;;;;8.97;100.00;102233.16;5104296;28;20215;-73
2024/02/04 10:11:44;;;;;;;;;;;;;;;8.92;100.00;102233.19;5100483;28;20334;-73
2024/02/04 10:14:09;;;;;;;;;;;;;;;8.92;100.00;102217.53;5106834;28;20244;-73
2024/02/04 10:16:37;;;;;;;;;;;;;;;8.97;100.00;102228.78;5086470;28;20418;-73
2024/02/04 10:19:02;;;;;;;;;;;;;;;8.96;100.00;102228.81;5108547;28;19919;-73
2024/02/04 10:21:28;;;;;;;;;;;;;;;9.00;100.00;102226.16;5103270;27;20417;-73
2024/02/04 10:23:53;;;;;;;;;;;;;;;9.03;100.00;102238.31;5109771;28;19939;-73
2024/02/04 10:26:21;;;;;;;;;;;;;;;9.05;100.00;102241.75;5110646;28;19983;-73
2024/02/04 10:28:47;;;;;;;;;;;;;;;9.09;100.00;102233.00;5110075;28;19924;-73
2024/02/04 10:31:12;;;;;;;;;;;;;;;9.12;100.00;102222.50;5108494;28;20010;-73
2024/02/04 10:33:38;;;;;;;;;;;;;;;9.12;100.00;102235.59;5110728;28;20535;-73
2024/02/04 10:36:03;;;;;;;;;;;;;;;9.17;100.00;102240.75;5109647;28;19927;-73
2024/02/04 10:38:29;;;;;;;;;;;;;;;9.17;100.00;102240.75;5111136;28;19931;-73
2024/02/04 10:40:54;;;;;;;;;;;;;;;9.20;100.00;102236.38;5109277;28;19923;-73
2024/02/04 10:43:24;;;;;;;;;;;;;;;9.20;100.00;102231.13;5086360;28;19984;-73
2024/02/04 10:45:50;;;;;;;;;;;;;;;9.22;100.00;102233.69;5100163;28;19926;-73
2024/02/04 10:48:19;;;;;;;;;;;;;;;9.23;100.00;102238.91;5108577;28;20284;-73
2024/02/04 10:50:46;;;;;;;;;;;;;;;9.20;100.00;102240.69;5109578;28;19919;-73
2024/02/04 10:53:13;;;;;;;;;;;;;;;9.21;100.00;102230.22;5108213;28;20026;-73
2024/02/04 10:55:41;;;;;;;;;;;;;;;9.26;100.00;102243.25;5107953;28;19928;-73
2024/02/04 10:58:07;;;;;;;;;;;;;;;9.25;100.00;102233.66;5105933;28;20267;-73
2024/02/04 11:00:32;;;;;;;;;;;;;;;9.26;100.00;102221.47;5108715;28;20215;-73
2024/02/04 11:02:59;;;;;;;;;;;;;;;9.23;100.00;102228.47;5107615;28;19920;-73
2024/02/04 11:05:25;;;;;;;;;;;;;;;9.24;100.00;102234.56;5109639;28;19958;-72
2024/02/04 11:07:51;;;;;;;;;;;;;;;9.26;100.00;102227.56;5109040;28;19928;-73
2024/02/04 11:10:16;;;;;;;;;;;;;;;9.26;100.00;102226.69;5105285;28;19931;-72
2024/02/04 11:12:42;;;;;;;;;;;;;;;9.28;100.00;102235.38;5109722;28;20136;-73
2024/02/04 11:15:08;;;;;;;;;;;;;;;9.31;100.00;102230.13;5106005;28;20162;-73
2024/02/04 11:17:43;;;;;;;;;;;;;;;9.33;100.00;102230.94;5108850;28;19920;-73
2024/02/04 11:20:18;;;;;;;;;;;;;;;9.35;100.00;102237.91;5108012;28;20147;-73
2024/02/04 11:22:45;;;;;;;;;;;;;;;9.37;100.00;102227.44;5109455;28;20456;-73
2024/02/04 11:25:13;;;;;;;;;;;;;;;9.40;100.00;102225.66;5108790;28;20139;-73
2024/02/04 11:27:39;;;;;;;;;;;;;;;9.41;100.00;102221.28;5111034;28;20100;-73
2024/02/04 11:30:05;;;;;;;;;;;;;;;9.45;100.00;102224.72;5108316;28;20217;-73
2024/02/04 11:32:30;;;;;;;;;;;;;;;9.44;100.00;102226.47;5109623;28;19965;-73
2024/02/04 11:34:55;;;;;;;;;;;;;;;9.41;100.00;102216.91;5109690;28;19923;-73
2024/02/04 11:37:20;;;;;;;;;;;;;;;9.46;100.00;102229.03;5109286;28;20722;-73
2024/02/04 11:39:52;;;;;;;;;;;;;;;9.46;100.00;102205.50;5110263;28;19920;-73
2024/02/04 11:42:18;;;;;;;;;;;;;;;9.45;100.00;102224.72;5110055;28;20075;-73
2024/02/04 11:44:44;;;;;;;;;;;;;;;9.41;100.00;102201.22;5108469;27;19923;-73
2024/02/04 11:47:09;;;;;;;;;;;;;;;9.41;100.00;102203.81;5106785;28;19923;-73
2024/02/04 11:49:34;;;;;;;;;;;;;;;9.45;100.00;102194.19;5104948;28;20016;-73
2024/02/04 11:51:59;;;;;;;;;;;;;;;9.45;100.00;102182.88;5107900;28;20284;-73
2024/02/04 11:54:25;;;;;;;;;;;;;;;9.50;100.00;102181.06;5090324;28;20153;-73
2024/02/04 11:56:53;;;;;;;;;;;;;;;9.47;100.00;102186.31;5108770;28;19946;-73
2024/02/04 11:59:18;;;;;;;;;;;;;;;9.53;100.00;102183.59;5108453;28;19926;-72
2024/02/04 12:01:43;;;;;;;;;;;;;;;9.53;100.00;102194.06;5109860;28;19954;-73
2024/02/04 12:04:10;;;;;;;;;;;;;;;9.53;100.00;102197.56;5088821;28;19920;-73
2024/02/04 12:06:35;;;;;;;;;;;;;;;9.51;100.00;102175.78;5107876;28;19926;-73
2024/02/04 12:09:00;;;;;;;;;;;;;;;9.48;100.00;102182.81;5108527;28;20130;-72
2024/02/04 12:11:26;;;;;;;;;;;;;;;9.48;100.00;102174.97;5098346;28;19920;-73
2024/02/04 12:13:52;;;;;;;;;;;;;;;9.47;100.00;102191.56;5107839;28;19919;-73
2024/02/04 12:16:17;;;;;;;;;;;;;;;9.48;100.00;102181.06;5106690;28;20041;-73
2024/02/04 12:18:49;;;;;;;;;;;;;;;9.47;100.00;102181.09;5108670;28;19919;-73
2024/02/04 12:21:14;;;;;;;;;;;;;;;9.50;100.00;102175.81;5107976;28;19924;-73
2024/02/04 12:23:40;;;;;;;;;;;;;;;9.48;100.00;102185.41;5095926;28;19931;-73
2024/02/04 12:26:05;;;;;;;;;;;;;;;9.49;100.00;102179.31;5094185;28;19955;-73
2024/02/04 12:28:30;;;;;;;;;;;;;;;9.50;100.00;102179.28;5102027;28;19928;-73